Time;durP1;ratioP1;P1;durP2;ratioP2;P2;SDS_P1;SDS_P2;PMS_P1;PMS_P2;Temp;Humidity;BMP_temperature;BMP_pressure;BME280_temperature;BME280_humidity;BME280_pressure;Samples;Min_cycle;Max_cycle;Signal;HPM_P1;HPM_P2
2022/02/08 00:02:15;;;;;;;9.48;1.83;;;17.70;99.90;;;;;;5039095;28;20121;-64
2022/02/08 00:04:43;;;;;;;9.52;1.35;;;17.80;99.90;;;;;;5043925;28;20030;-63
2022/02/08 00:07:12;;;;;;;6.88;1.42;;;18.00;99.90;;;;;;5024771;28;20379;-64
2022/02/08 00:09:39;;;;;;;10.70;1.67;;;18.10;99.90;;;;;;5043010;28;20465;-64
2022/02/08 00:12:08;;;;;;;9.25;1.63;;;18.10;99.90;;;;;;5029204;28;20037;-64
2022/02/08 00:14:35;;;;;;;8.65;2.03;;;18.20;99.90;;;;;;5050188;28;20063;-63
2022/02/08 00:17:03;;;;;;;7.88;1.52;;;18.20;99.90;;;;;;5037591;28;20256;-63
2022/02/08 00:19:32;;;;;;;7.22;1.17;;;18.40;99.90;;;;;;5043551;28;20044;-64
2022/02/08 00:21:59;;;;;;;7.57;1.40;;;18.50;99.90;;;;;;5023032;28;20088;-63
2022/02/08 00:24:26;;;;;;;10.80;1.40;;;18.50;99.90;;;;;;5037238;28;20033;-63
2022/02/08 00:26:54;;;;;;;7.97;1.70;;;18.50;99.90;;;;;;5038535;28;20504;-63
2022/02/08 00:29:22;;;;;;;8.32;0.98;;;18.50;99.90;;;;;;5036600;28;20048;-63
2022/02/08 00:31:49;;;;;;;5.88;1.25;;;18.50;99.90;;;;;;5032370;28;20033;-63
2022/02/08 00:34:16;;;;;;;6.72;1.23;;;18.70;99.90;;;;;;5031469;28;20029;-63
2022/02/08 00:36:44;;;;;;;6.90;0.93;;;18.80;99.90;;;;;;5032287;28;20029;-63
2022/02/08 00:39:12;;;;;;;8.60;1.52;;;18.80;99.90;;;;;;5027892;28;20489;-63
2022/02/08 00:41:39;;;;;;;15.38;2.85;;;18.90;99.90;;;;;;5035258;28;20025;-64
2022/02/08 00:44:22;;;;;;;20.10;7.15;;;19.00;99.90;;;;;;5029242;28;20510;-64
2022/02/08 00:47:01;;;;;;;9.15;3.08;;;19.00;99.90;;;;;;5033169;28;20026;-64
2022/02/08 00:49:33;;;;;;;11.50;1.23;;;19.10;99.90;;;;;;5023319;28;20041;-64
2022/02/08 00:52:13;;;;;;;7.28;2.15;;;19.20;99.90;;;;;;5026550;28;20033;-63
2022/02/08 00:54:50;;;;;;;6.28;1.67;;;19.20;99.90;;;;;;5031973;28;20033;-63
2022/02/08 00:57:18;;;;;;;6.07;0.98;;;19.20;99.90;;;;;;5026868;28;20099;-63
2022/02/08 00:59:45;;;;;;;8.07;1.92;;;19.20;99.90;;;;;;5030793;28;20032;-63
2022/02/08 01:02:13;;;;;;;6.80;1.80;;;19.10;99.90;;;;;;5031794;28;20099;-63
2022/02/08 01:04:42;;;;;;;11.07;1.55;;;19.10;99.90;;;;;;5032953;28;20029;-63
2022/02/08 01:07:13;;;;;;;5.72;1.00;;;19.10;99.90;;;;;;5031071;28;20046;-64
2022/02/08 01:09:51;;;;;;;6.25;1.33;;;19.10;99.90;;;;;;5033914;28;20029;-64
2022/02/08 01:12:19;;;;;;;5.05;1.10;;;19.10;99.90;;;;;;5031340;28;20030;-63
2022/02/08 01:14:52;;;;;;;10.10;1.58;;;19.10;99.90;;;;;;5037950;28;20025;-64
2022/02/08 01:17:24;;;;;;;7.10;1.10;;;19.30;99.90;;;;;;5019646;28;20531;-65
2022/02/08 01:19:58;;;;;;;9.55;1.23;;;19.40;99.90;;;;;;5018992;28;20033;-64
2022/02/08 01:22:25;;;;;;;5.95;1.40;;;19.90;99.90;;;;;;5036893;28;20557;-63
2022/02/08 01:24:52;;;;;;;10.75;1.70;;;20.30;99.90;;;;;;5036840;28;20037;-63
2022/02/08 01:27:29;;;;;;;6.72;1.38;;;20.20;99.90;;;;;;5030719;28;21568;-64
2022/02/08 01:30:00;;;;;;;5.80;1.10;;;20.20;99.90;;;;;;5030531;28;20454;-64
2022/02/08 01:38:21;;;;;;;6.00;0.93;;;20.40;99.90;;;;;;5030201;28;20123;-64
2022/02/08 01:46:05;;;;;;;8.30;2.38;;;21.00;99.90;;;;;;5046926;28;20039;-65
2022/02/08 01:51:20;;;;;;;5.18;1.40;;;20.80;99.90;;;;;;5082222;27;20408;-64
2022/02/08 01:53:50;;;;;;;9.50;2.05;;;20.90;99.90;;;;;;5062973;28;20028;-66
2022/02/08 01:56:21;;;;;;;12.65;2.40;;;20.90;99.90;;;;;;5070119;28;20056;-65
2022/02/08 01:58:49;;;;;;;4.05;1.15;;;21.10;99.90;;;;;;5084230;28;20037;-65
2022/02/08 02:01:17;;;;;;;5.43;1.08;;;21.20;99.90;;;;;;5039779;28;20026;-65
2022/02/08 02:03:45;;;;;;;8.18;1.70;;;21.30;99.90;;;;;;5059978;28;20052;-65
2022/02/08 02:06:15;;;;;;;8.20;1.08;;;21.60;99.90;;;;;;5065677;28;20025;-65
2022/02/08 02:08:43;;;;;;;9.45;1.77;;;21.90;99.90;;;;;;5051311;28;20017;-64
2022/02/08 02:11:11;;;;;;;7.38;1.10;;;22.30;99.90;;;;;;5045546;28;20087;-64
2022/02/08 02:13:49;;;;;;;4.90;1.23;;;22.50;99.90;;;;;;5062902;28;20048;-65
2022/02/08 02:16:23;;;;;;;7.50;1.25;;;22.80;99.90;;;;;;5049724;28;20029;-64
2022/02/08 02:18:51;;;;;;;10.82;1.42;;;22.70;99.90;;;;;;5052482;28;20037;-64
2022/02/08 02:21:19;;;;;;;6.20;1.35;;;22.70;99.90;;;;;;5061517;28;20025;-64
2022/02/08 02:23:48;;;;;;;6.50;1.13;;;22.70;99.90;;;;;;5070183;28;20024;-65
2022/02/08 02:26:17;;;;;;;4.97;0.73;;;22.60;99.90;;;;;;5066683;28;20040;-64
2022/02/08 02:28:45;;;;;;;9.52;1.75;;;22.50;99.90;;;;;;5049458;28;20766;-64
2022/02/08 02:31:12;;;;;;;9.65;1.45;;;22.10;99.90;;;;;;5066147;28;20041;-63
2022/02/08 02:33:39;;;;;;;6.18;0.90;;;21.70;99.90;;;;;;5068079;28;20031;-63
2022/02/08 02:36:07;;;;;;;4.85;0.98;;;21.50;99.90;;;;;;5084611;28;20068;-63
2022/02/08 02:38:34;;;;;;;7.53;1.33;;;21.50;99.90;;;;;;5058284;28;20029;-63
2022/02/08 02:41:02;;;;;;;7.50;1.10;;;21.90;99.90;;;;;;5068467;28;20017;-63
2022/02/08 02:43:30;;;;;;;3.83;0.63;;;22.10;99.90;;;;;;5066807;28;20028;-63
2022/02/08 02:46:00;;;;;;;10.50;1.25;;;22.10;99.90;;;;;;5065872;28;20067;-63
2022/02/08 02:48:27;;;;;;;6.75;1.38;;;22.20;99.90;;;;;;5063994;28;20147;-64
2022/02/08 02:50:55;;;;;;;9.35;1.25;;;22.20;99.90;;;;;;5060589;28;20087;-64
2022/02/08 02:53:31;;;;;;;7.78;0.90;;;22.20;99.90;;;;;;5067087;28;20109;-64
2022/02/08 02:55:59;;;;;;;5.85;1.05;;;22.10;99.90;;;;;;5065901;28;20032;-63
2022/02/08 02:58:32;;;;;;;14.38;2.33;;;22.00;99.90;;;;;;5056338;28;20397;-64
2022/02/08 03:20:08;;;;;;;5.22;0.80;;;23.90;99.90;;;;;;5043382;28;20397;-65
2022/02/08 03:22:35;;;;;;;5.75;0.68;;;24.00;99.90;;;;;;5045650;28;20053;-65
2022/02/08 03:25:03;;;;;;;6.60;0.98;;;24.00;99.90;;;;;;5040684;28;20028;-65
2022/02/08 03:27:31;;;;;;;5.15;0.60;;;24.10;99.90;;;;;;5035606;28;20037;-65
2022/02/08 03:29:58;;;;;;;3.88;0.45;;;24.10;99.90;;;;;;5049829;28;20032;-65
2022/02/08 03:32:25;;;;;;;5.57;0.70;;;24.00;99.90;;;;;;5053301;28;20029;-66
2022/02/08 03:34:53;;;;;;;6.68;0.55;;;24.20;99.90;;;;;;5042801;28;20033;-65
2022/02/08 03:37:20;;;;;;;6.70;0.70;;;24.10;99.90;;;;;;5035924;28;20048;-64
2022/02/08 03:39:57;;;;;;;5.43;1.10;;;24.20;99.90;;;;;;5053963;28;20022;-65
2022/02/08 03:42:34;;;;;;;4.95;0.63;;;24.20;99.90;;;;;;5053223;28;20457;-64
2022/02/08 03:45:03;;;;;;;6.25;0.57;;;24.20;99.90;;;;;;5057506;28;20034;-65
2022/02/08 03:47:31;;;;;;;8.68;1.13;;;24.20;99.90;;;;;;5041607;28;20074;-66
2022/02/08 03:50:01;;;;;;;4.82;0.93;;;24.20;99.90;;;;;;5052195;28;20049;-66
2022/02/08 03:52:28;;;;;;;6.60;0.80;;;24.30;99.90;;;;;;5043135;28;20028;-66
2022/02/08 03:54:59;;;;;;;8.07;1.13;;;24.20;99.90;;;;;;5035393;28;20378;-66
2022/02/08 03:57:28;;;;;;;5.65;0.60;;;23.90;99.90;;;;;;5044593;28;20026;-65
2022/02/08 03:59:59;;;;;;;6.28;0.85;;;23.70;99.90;;;;;;5047676;28;20582;-68
2022/02/08 04:05:02;;;;;;;1.50;0.45;;;23.80;99.90;;;;;;5045618;28;20516;-66
2022/02/08 04:07:50;;;;;;;4.70;0.93;;;24.00;99.90;;;;;;5023056;28;20055;-67
2022/02/08 04:10:24;;;;;;;4.97;0.80;;;23.90;99.90;;;;;;5044615;28;20509;-67
2022/02/08 04:13:05;;;;;;;;;;;23.90;99.90;;;;;;5046359;28;20547;-67
2022/02/08 04:34:44;;;;;;;6.13;0.68;;;23.10;99.90;;;;;;5049934;28;20112;-65
2022/02/08 04:42:37;;;;;;;7.57;1.30;;;23.20;99.90;;;;;;5037385;28;20033;-65
2022/02/08 04:48:00;;;;;;;6.03;1.17;;;22.50;99.90;;;;;;5039916;28;20025;-65
2022/02/08 04:50:30;;;;;;;5.63;0.90;;;22.50;99.90;;;;;;5033368;28;20041;-64
2022/02/08 04:53:04;;;;;;;8.18;1.13;;;22.60;99.90;;;;;;5045680;28;20105;-65
2022/02/08 04:58:19;;;;;;;5.88;0.80;;;22.40;99.90;;;;;;5050894;28;20063;-65
2022/02/08 05:01:04;;;;;;;7.68;1.00;;;22.40;99.90;;;;;;5056801;28;20052;-65
2022/02/08 05:29:19;;;;;;;5.05;1.00;;;22.50;99.90;;;;;;5043277;28;20048;-65
2022/02/08 05:37:16;;;;;;;4.07;0.68;;;22.90;99.90;;;;;;5042238;28;20443;-65
2022/02/08 05:44:57;;;;;;;8.27;0.90;;;22.60;99.90;;;;;;5036322;28;20037;-65
2022/02/08 05:47:26;;;;;;;4.35;0.80;;;22.40;99.90;;;;;;5042994;28;20033;-65
2022/02/08 05:50:09;;;;;;;7.10;0.90;;;22.40;99.90;;;;;;5047501;28;20105;-65
2022/02/08 05:53:02;;;;;;;7.63;1.67;;;22.60;99.90;;;;;;5038287;28;20029;-65
2022/02/08 05:55:31;;;;;;;5.18;0.73;;;22.70;99.90;;;;;;5051161;28;20301;-65
2022/02/08 05:57:58;;;;;;;3.10;0.70;;;22.80;99.90;;;;;;5031724;28;20039;-66
2022/02/08 06:00:29;;;;;;;5.05;0.80;;;22.70;99.90;;;;;;5049111;28;20112;-65
2022/02/08 06:03:03;;;;;;;2.83;0.60;;;22.80;99.90;;;;;;5041379;28;20041;-65
2022/02/08 06:05:30;;;;;;;;;;;23.00;99.90;;;;;;5042742;28;20136;-65
2022/02/08 06:07:57;;;;;;;3.58;0.85;;;23.00;99.90;;;;;;5044852;28;20316;-65
2022/02/08 06:10:25;;;;;;;8.80;1.02;;;22.70;99.90;;;;;;5047634;28;20128;-65
2022/02/08 06:12:55;;;;;;;6.35;1.30;;;22.40;99.90;;;;;;5047735;28;20033;-64
2022/02/08 06:15:25;;;;;;;6.63;0.80;;;22.30;99.90;;;;;;5047973;28;20036;-64
2022/02/08 06:17:57;;;;;;;5.07;0.50;;;22.10;99.90;;;;;;5047681;28;20025;-64
2022/02/08 06:20:25;;;;;;;10.00;1.33;;;22.20;99.90;;;;;;5050742;28;20025;-64
2022/02/08 06:22:52;;;;;;;8.60;1.35;;;22.20;99.90;;;;;;5044033;28;20055;-64
2022/02/08 06:25:20;;;;;;;4.38;0.68;;;22.20;99.90;;;;;;5048179;28;20037;-64
2022/02/08 06:27:51;;;;;;;7.15;0.82;;;22.20;99.90;;;;;;5048433;28;20025;-64
2022/02/08 06:30:21;;;;;;;6.47;0.88;;;22.10;99.90;;;;;;5050004;28;20428;-64
2022/02/08 06:32:53;;;;;;;7.85;1.02;;;22.20;99.90;;;;;;5039649;28;20025;-64
2022/02/08 06:35:27;;;;;;;8.52;0.90;;;22.10;99.90;;;;;;5039688;28;20104;-64
2022/02/08 06:37:58;;;;;;;4.63;1.10;;;22.20;99.90;;;;;;5036512;28;20482;-64
2022/02/08 06:40:25;;;;;;;3.00;0.60;;;22.20;99.90;;;;;;5050639;28;20040;-64
2022/02/08 06:42:57;;;;;;;5.28;0.70;;;22.10;99.90;;;;;;5054690;28;20036;-64
2022/02/08 06:45:24;;;;;;;8.90;1.00;;;22.00;99.90;;;;;;5055114;28;20096;-64
2022/02/08 06:47:52;;;;;;;4.60;0.60;;;21.90;99.90;;;;;;5045803;28;20021;-64
2022/02/08 06:50:20;;;;;;;5.03;0.65;;;21.90;99.90;;;;;;5051813;28;20052;-64
2022/02/08 06:52:48;;;;;;;5.15;0.60;;;21.80;99.90;;;;;;5054221;28;20382;-64
2022/02/08 06:55:16;;;;;;;7.32;0.93;;;21.70;99.90;;;;;;5020392;28;20044;-64
2022/02/08 06:57:52;;;;;;;5.85;0.60;;;21.80;99.90;;;;;;5050335;28;20105;-64
2022/02/08 07:00:30;;;;;;;6.75;0.68;;;21.70;99.90;;;;;;5052485;28;20025;-64
2022/02/08 07:02:58;;;;;;;8.80;0.95;;;21.70;99.90;;;;;;5054684;28;20041;-64
2022/02/08 07:05:26;;;;;;;3.97;1.25;;;21.90;99.90;;;;;;5044254;28;20024;-64
2022/02/08 07:07:53;;;;;;;5.82;1.45;;;21.90;99.90;;;;;;5054882;28;20470;-64
2022/02/08 07:10:20;;;;;;;7.80;1.20;;;21.80;99.90;;;;;;5054505;28;20029;-64
2022/02/08 07:12:50;;;;;;;5.68;0.73;;;21.80;99.90;;;;;;5054251;28;20108;-64
2022/02/08 07:15:21;;;;;;;4.80;0.85;;;21.80;99.90;;;;;;5048434;28;20121;-64
2022/02/08 07:17:49;;;;;;;6.93;0.57;;;21.70;99.90;;;;;;5054111;28;20033;-63
2022/02/08 07:20:17;;;;;;;2.40;0.90;;;21.70;99.90;;;;;;5054410;28;20400;-63
2022/02/08 07:22:44;;;;;;;5.65;0.98;;;21.70;99.90;;;;;;5049174;28;20428;-63
2022/02/08 07:25:12;;;;;;;9.77;0.80;;;21.70;99.90;;;;;;5052795;28;20055;-63
2022/02/08 07:27:39;;;;;;;6.80;1.13;;;21.70;99.90;;;;;;5054698;28;20017;-63
2022/02/08 07:30:11;;;;;;;6.95;1.10;;;21.60;99.90;;;;;;5047086;28;20025;-63
2022/02/08 07:32:41;;;;;;;7.63;1.25;;;21.70;99.90;;;;;;5038806;28;20037;-64
2022/02/08 07:35:29;;;;;;;5.05;0.88;;;21.70;99.90;;;;;;5054193;28;20024;-64
2022/02/08 07:43:05;;;;;;;3.63;0.82;;;21.40;99.90;;;;;;5000376;28;20120;-64
2022/02/08 07:45:32;;;;;;;3.95;0.50;;;21.40;99.90;;;;;;4995494;28;20029;-64
2022/02/08 07:48:00;;;;;;;6.70;1.02;;;21.40;99.90;;;;;;4997836;28;20022;-64
2022/02/08 07:50:28;;;;;;;3.58;0.65;;;21.40;99.90;;;;;;4994935;28;20045;-64
2022/02/08 07:52:55;;;;;;;5.82;1.02;;;21.30;99.90;;;;;;5010337;28;20032;-64
2022/02/08 07:55:23;;;;;;;4.97;0.57;;;21.30;99.90;;;;;;5010558;28;20018;-64
2022/02/08 07:57:51;;;;;;;8.55;1.17;;;21.30;99.90;;;;;;5010820;28;20376;-64
2022/02/08 08:00:19;;;;;;;6.70;0.65;;;21.30;99.90;;;;;;5013471;28;20152;-64
2022/02/08 08:02:46;;;;;;;3.03;0.63;;;21.30;99.90;;;;;;5014182;28;20072;-64
2022/02/08 08:05:13;;;;;;;3.30;0.50;;;21.20;99.90;;;;;;5014495;28;20022;-64
2022/02/08 08:07:41;;;;;;;7.38;1.00;;;21.20;99.90;;;;;;5014294;28;20025;-64
2022/02/08 08:10:11;;;;;;;4.88;1.10;;;21.20;99.90;;;;;;5013284;28;20046;-64
2022/02/08 08:12:45;;;;;;;11.57;2.38;;;21.10;99.90;;;;;;5012873;28;20564;-64
2022/02/08 08:15:26;;;;;;;5.38;1.60;;;21.10;99.90;;;;;;5014091;28;20026;-64
2022/02/08 08:18:14;;;;;;;6.45;0.60;;;21.10;99.90;;;;;;5014376;28;20022;-64
2022/02/08 08:20:42;;;;;;;9.77;1.02;;;21.00;99.90;;;;;;5013439;28;20041;-63
2022/02/08 08:23:10;;;;;;;8.73;1.25;;;21.00;99.90;;;;;;5014857;28;20068;-64
2022/02/08 08:25:37;;;;;;;7.80;1.10;;;21.00;99.90;;;;;;5010794;28;20026;-64
2022/02/08 08:28:06;;;;;;;8.00;1.27;;;21.00;99.90;;;;;;5002276;28;20038;-63
2022/02/08 08:30:33;;;;;;;5.85;1.00;;;20.90;99.90;;;;;;5009302;28;20470;-63
2022/02/08 08:33:02;;;;;;;4.85;0.70;;;20.90;99.90;;;;;;5011346;28;20101;-63
2022/02/08 08:35:29;;;;;;;7.00;1.00;;;20.90;99.90;;;;;;5011958;28;20033;-63
2022/02/08 08:38:03;;;;;;;6.30;1.05;;;20.90;99.90;;;;;;5002066;28;20073;-63
2022/02/08 08:48:49;;;;;;;3.70;0.63;;;20.80;99.90;;;;;;5015539;28;20109;-63
2022/02/08 08:53:44;;;;;;;4.55;0.85;;;20.70;99.90;;;;;;5013454;28;20026;-63
2022/02/08 08:56:12;;;;;;;4.45;1.15;;;20.70;99.90;;;;;;5012792;28;20105;-63
2022/02/08 08:58:44;;;;;;;4.75;1.00;;;20.70;99.90;;;;;;5014719;28;20487;-64
2022/02/08 09:01:12;;;;;;;6.47;1.20;;;20.70;99.90;;;;;;5014686;28;20391;-63
2022/02/08 09:03:40;;;;;;;6.55;1.27;;;20.60;99.90;;;;;;5019629;28;20037;-63
2022/02/08 09:06:08;;;;;;;3.95;1.10;;;20.60;99.90;;;;;;5019694;28;20030;-63
2022/02/08 09:08:39;;;;;;;5.10;0.93;;;20.50;99.90;;;;;;5021030;28;20030;-63
2022/02/08 09:11:17;;;;;;;4.10;1.40;;;20.50;99.90;;;;;;5014579;28;20035;-63
2022/02/08 09:14:00;;;;;;;5.32;1.10;;;20.40;99.90;;;;;;5018687;28;20040;-63
2022/02/08 09:24:51;;;;;;;4.78;0.88;;;20.30;99.90;;;;;;5005495;28;20113;-63
2022/02/08 09:27:44;;;;;;;6.28;1.00;;;20.30;99.90;;;;;;5000042;28;20036;-63
2022/02/08 09:30:14;;;;;;;7.00;1.10;;;20.30;99.90;;;;;;5013512;28;20057;-63
2022/02/08 09:32:45;;;;;;;7.75;0.98;;;20.30;99.90;;;;;;5010360;28;20533;-64
2022/02/08 09:35:14;;;;;;;6.43;1.10;;;20.20;99.90;;;;;;5013349;28;20069;-63
2022/02/08 09:37:42;;;;;;;6.00;0.93;;;20.20;99.90;;;;;;5011897;28;20030;-63
2022/02/08 09:40:11;;;;;;;9.32;1.02;;;20.20;99.90;;;;;;5014131;28;20107;-64
2022/02/08 09:42:40;;;;;;;8.10;1.10;;;20.20;99.90;;;;;;5012585;28;20017;-64
2022/02/08 09:45:17;;;;;;;4.40;1.50;;;20.20;99.90;;;;;;5013654;28;20026;-64
2022/02/08 09:48:00;;;;;;;4.90;1.30;;;20.10;99.90;;;;;;5013536;28;20109;-64
2022/02/08 09:50:32;;;;;;;6.40;1.30;;;20.10;99.90;;;;;;5012717;28;20506;-63
2022/02/08 09:53:01;;;;;;;4.57;1.20;;;20.10;99.90;;;;;;5013741;28;20053;-64
2022/02/08 09:55:38;;;;;;;6.90;1.05;;;20.10;99.90;;;;;;5014416;28;20438;-63
2022/02/08 09:58:06;;;;;;;5.53;1.33;;;20.00;99.90;;;;;;5011382;28;20038;-64
2022/02/08 10:00:35;;;;;;;8.10;1.55;;;20.00;99.90;;;;;;5012364;28;20089;-63
2022/02/08 10:03:14;;;;;;;5.80;1.13;;;20.00;99.90;;;;;;5024956;28;20029;-63
2022/02/08 10:05:53;;;;;;;5.32;1.20;;;20.00;99.90;;;;;;5008188;28;20022;-63
2022/02/08 10:08:21;;;;;;;6.22;1.20;;;20.00;99.90;;;;;;5009749;28;20514;-63
2022/02/08 10:10:49;;;;;;;6.78;1.33;;;20.00;99.90;;;;;;5009614;28;20115;-64
2022/02/08 10:14:20;;;;;;;7.07;1.17;;;20.00;99.90;;;;;;5017075;28;20006;-63
2022/02/08 10:21:48;;;;;;;5.32;1.10;;;20.10;99.90;;;;;;5018544;28;20029;-63
2022/02/08 10:24:22;;;;;;;6.65;1.13;;;20.10;99.90;;;;;;5017664;28;20061;-63
2022/02/08 10:30:13;;;;;;;8.32;1.13;;;20.10;99.90;;;;;;5012931;28;20072;-63
2022/02/08 10:37:40;;;;;;;3.25;1.05;;;20.10;99.90;;;;;;5016303;28;20100;-63
2022/02/08 10:40:17;;;;;;;5.80;0.93;;;20.10;99.90;;;;;;5016302;28;20041;-63
2022/02/08 10:42:52;;;;;;;3.65;1.05;;;20.10;99.90;;;;;;5005369;28;20025;-63
2022/02/08 10:45:30;;;;;;;6.40;1.42;;;20.00;99.90;;;;;;5017908;28;20022;-64
2022/02/08 10:48:03;;;;;;;6.78;0.95;;;20.00;99.90;;;;;;5012683;28;20022;-63
2022/02/08 10:50:34;;;;;;;7.53;0.95;;;20.00;99.90;;;;;;5010646;28;20037;-63
2022/02/08 10:53:04;;;;;;;5.40;1.05;;;19.90;99.90;;;;;;5011275;28;20100;-63
2022/02/08 11:00:54;;;;;;;7.00;1.83;;;20.00;99.90;;;;;;5013389;28;20033;-63
2022/02/08 11:03:38;;;;;;;5.15;0.70;;;19.90;99.90;;;;;;5007769;28;20129;-63
2022/02/08 11:06:37;;;;;;;6.10;0.88;;;19.90;99.90;;;;;;5006042;28;20042;-63
2022/02/08 11:09:25;;;;;;;6.15;1.02;;;19.80;99.90;;;;;;5020216;28;22036;-63
2022/02/08 11:12:11;;;;;;;7.00;1.17;;;19.70;99.90;;;;;;5015580;28;20033;-63
2022/02/08 11:18:11;;;;;;;5.05;1.10;;;19.70;99.90;;;;;;5008996;28;20038;-63
2022/02/08 11:20:45;;;;;;;7.57;1.25;;;19.70;99.90;;;;;;5010743;28;20030;-63
2022/02/08 11:23:48;;;;;;;8.02;1.42;;;19.70;99.90;;;;;;5013589;28;20034;-63
2022/02/08 11:26:43;;;;;;;7.53;1.45;;;19.70;99.90;;;;;;5011802;28;20030;-63
2022/02/08 11:29:27;;;;;;;4.53;0.93;;;19.70;99.90;;;;;;5013191;28;20447;-63
2022/02/08 11:32:08;;;;;;;5.32;1.52;;;19.60;99.90;;;;;;5003155;28;20407;-63
2022/02/08 11:44:04;;;;;;;6.10;1.25;;;19.60;99.90;;;;;;5015839;28;20034;-63
2022/02/08 11:59:01;;;;;;;5.95;1.13;;;19.50;99.90;;;;;;5008868;28;20065;-62
2022/02/08 12:01:44;;;;;;;10.57;1.40;;;19.60;99.90;;;;;;5010484;28;20037;-63
2022/02/08 12:32:06;;;;;;;11.32;1.00;;;19.60;99.90;;;;;;5010005;28;20116;-64
2022/02/08 12:56:40;;;;;;;7.63;1.60;;;19.40;99.90;;;;;;5011585;28;20068;-63
2022/02/08 12:59:26;;;;;;;10.68;1.75;;;19.40;99.90;;;;;;5010986;28;20038;-63
2022/02/08 13:04:50;;;;;;;6.47;1.15;;;19.50;99.90;;;;;;5011033;28;20033;-64
2022/02/08 14:01:32;;;;;;;4.18;0.70;;;19.30;99.90;;;;;;5015370;28;20029;-65
2022/02/08 14:08:35;;;;;;;5.15;0.90;;;19.00;99.90;;;;;;5011957;28;20574;-63
2022/02/08 14:14:03;;;;;;;5.57;0.85;;;19.00;99.90;;;;;;5021346;28;20033;-64
2022/02/08 14:19:20;;;;;;;4.95;0.70;;;19.00;99.90;;;;;;5013490;28;20030;-63
2022/02/08 14:21:58;;;;;;;4.45;0.60;;;19.00;99.90;;;;;;5012188;28;20034;-63
2022/02/08 14:30:08;;;;;;;7.03;1.00;;;19.00;99.90;;;;;;5010784;28;20129;-64
2022/02/08 15:05:56;;;;;;;8.25;0.57;;;18.90;99.90;;;;;;4973070;28;20563;-62
2022/02/08 15:08:30;;;;;;;5.72;1.17;;;18.80;99.90;;;;;;5012221;28;20437;-62
2022/02/08 15:11:05;;;;;;;6.55;1.08;;;18.90;99.90;;;;;;5021516;28;20125;-62
2022/02/08 15:13:32;;;;;;;3.45;0.65;;;18.90;99.90;;;;;;5014239;28;20101;-62
2022/02/08 15:18:45;;;;;;;3.80;0.70;;;18.80;99.90;;;;;;5026548;28;20076;-62
2022/02/08 15:21:18;;;;;;;5.30;0.63;;;18.70;99.90;;;;;;5016975;28;20030;-62
2022/02/08 15:23:45;;;;;;;7.13;0.80;;;18.70;99.90;;;;;;5010501;28;20014;-64
2022/02/08 15:26:13;;;;;;;4.28;0.55;;;18.60;99.90;;;;;;5016709;28;20059;-62
2022/02/08 15:28:40;;;;;;;5.20;0.73;;;18.60;99.90;;;;;;5014041;28;20030;-62
2022/02/08 15:31:08;;;;;;;5.38;1.33;;;18.50;99.90;;;;;;4997367;28;20026;-63
2022/02/08 15:33:35;;;;;;;4.25;0.55;;;18.50;99.90;;;;;;5023836;28;20033;-63
2022/02/08 15:36:03;;;;;;;5.70;0.88;;;18.40;99.90;;;;;;5035038;28;20033;-63
2022/02/08 15:38:33;;;;;;;8.68;1.20;;;18.40;99.90;;;;;;5014495;28;20041;-62
2022/02/08 15:41:02;;;;;;;4.00;0.88;;;18.40;99.90;;;;;;5014408;28;20410;-63
2022/02/08 15:43:30;;;;;;;6.15;0.80;;;18.30;99.90;;;;;;5014807;28;20116;-62
2022/02/08 15:46:07;;;;;;;7.75;0.73;;;18.30;99.90;;;;;;5013335;28;20057;-63
2022/02/08 15:48:34;;;;;;;7.93;1.60;;;18.30;99.90;;;;;;5013237;28;20438;-63
2022/02/08 15:51:13;;;;;;;5.47;0.73;;;18.30;99.90;;;;;;5014192;28;20056;-63
2022/02/08 15:53:56;;;;;;;4.65;0.95;;;18.20;99.90;;;;;;5009385;28;20081;-63
2022/02/08 15:56:33;;;;;;;6.28;0.90;;;18.10;99.90;;;;;;5013785;28;20083;-63
2022/02/08 16:09:36;;;;;;;6.78;0.77;;;18.00;99.90;;;;;;5006537;28;20037;-63
2022/02/08 16:12:32;;;;;;;4.47;0.93;;;18.00;99.90;;;;;;5006939;28;20117;-63
2022/02/08 16:15:26;;;;;;;6.30;0.98;;;17.90;99.90;;;;;;5006195;28;20022;-63
2022/02/08 16:18:07;;;;;;;6.07;1.15;;;18.00;99.90;;;;;;5012669;28;20065;-63
2022/02/08 16:21:05;;;;;;;2.83;0.50;;;18.00;99.90;;;;;;5013064;28;20041;-63
2022/02/08 16:26:23;;;;;;;7.18;1.08;;;18.00;99.90;;;;;;5013163;28;20030;-63
2022/02/08 16:31:45;;;;;;;3.30;0.50;;;17.90;99.90;;;;;;5011692;28;20376;-63
2022/02/08 16:56:23;;;;;;;3.50;0.52;;;17.80;99.90;;;;;;4963858;28;20047;-63
2022/02/08 16:58:56;;;;;;;3.70;0.60;;;17.80;99.90;;;;;;5002178;28;20044;-63
2022/02/08 17:01:27;;;;;;;4.57;0.88;;;17.80;99.90;;;;;;5013739;28;20072;-63
2022/02/08 17:03:55;;;;;;;4.70;0.40;;;17.80;99.90;;;;;;5013359;28;20034;-63
2022/02/08 17:06:25;;;;;;;5.82;0.60;;;17.80;99.90;;;;;;5011401;28;20088;-63
2022/02/08 17:09:18;;;;;;;7.45;0.93;;;17.80;99.90;;;;;;5006578;28;20075;-63
2022/02/08 17:11:49;;;;;;;8.18;0.98;;;17.90;99.90;;;;;;5012789;28;20053;-63
2022/02/08 17:17:00;;;;;;;5.07;1.08;;;18.00;99.90;;;;;;5018985;28;20037;-63
2022/02/08 17:46:59;;;;;;;4.35;0.80;;;18.00;99.90;;;;;;5004569;28;20536;-63
2022/02/08 17:49:26;;;;;;;7.80;0.60;;;18.00;99.90;;;;;;5006209;28;20045;-63
2022/02/08 17:51:53;;;;;;;4.18;0.40;;;17.90;99.90;;;;;;5013457;28;20041;-63
2022/02/08 17:54:21;;;;;;;5.95;0.45;;;17.90;99.90;;;;;;5012599;28;20033;-63
2022/02/08 17:56:48;;;;;;;1.90;0.52;;;17.90;99.90;;;;;;5010046;28;20018;-63
2022/02/08 17:59:20;;;;;;;4.53;0.73;;;17.90;99.90;;;;;;5013889;28;20079;-63
2022/02/08 18:01:48;;;;;;;4.88;0.70;;;17.90;99.90;;;;;;5012173;28;20026;-63
2022/02/08 18:04:15;;;;;;;4.95;0.60;;;17.90;99.90;;;;;;5012242;28;20034;-63
2022/02/08 18:06:43;;;;;;;4.00;0.43;;;17.80;99.90;;;;;;5012643;28;20479;-63
2022/02/08 18:09:12;;;;;;;6.40;1.20;;;17.80;99.90;;;;;;5011728;28;20033;-63
2022/02/08 18:11:42;;;;;;;4.13;0.70;;;17.80;99.90;;;;;;5010898;28;20115;-63
2022/02/08 18:14:13;;;;;;;5.93;0.70;;;17.80;99.90;;;;;;5012391;28;20175;-63
2022/02/08 18:16:40;;;;;;;6.00;0.50;;;17.70;99.90;;;;;;5013484;28;20026;-63
2022/02/08 18:19:15;;;;;;;5.15;0.70;;;17.70;99.90;;;;;;5013738;28;20490;-63
2022/02/08 18:22:35;;;;;;;9.60;1.17;;;17.70;99.90;;;;;;5010484;28;20155;-63
2022/02/08 18:58:06;;;;;;;8.13;0.68;;;17.60;99.90;;;;;;5023546;28;20084;-63
2022/02/08 19:18:56;;;;;;;3.38;0.82;;;17.50;99.90;;;;;;5008380;28;20037;-63
2022/02/08 19:23:51;;;;;;;4.57;0.80;;;17.50;99.90;;;;;;5015597;28;20466;-64
2022/02/08 19:26:21;;;;;;;6.60;0.70;;;17.50;99.90;;;;;;4998168;28;20026;-63
2022/02/08 19:28:50;;;;;;;3.55;0.57;;;17.40;99.90;;;;;;5005559;28;20026;-63
2022/02/08 19:31:20;;;;;;;2.83;0.60;;;17.40;99.90;;;;;;4975708;28;20407;-63
2022/02/08 19:33:52;;;;;;;6.38;0.60;;;17.40;99.90;;;;;;5016866;28;20031;-63
2022/02/08 19:36:20;;;;;;;3.78;0.70;;;17.40;99.90;;;;;;4995770;28;20030;-63
2022/02/08 19:38:50;;;;;;;4.45;0.50;;;17.40;99.90;;;;;;5008409;28;20033;-63
2022/02/08 19:41:21;;;;;;;3.97;0.82;;;17.40;99.90;;;;;;5014202;28;20433;-63
2022/02/08 19:43:49;;;;;;;6.63;1.00;;;17.40;99.90;;;;;;5013912;28;20165;-63
2022/02/08 19:46:18;;;;;;;4.90;1.25;;;17.40;99.90;;;;;;4993676;28;20053;-63
2022/02/08 19:48:46;;;;;;;4.05;0.60;;;17.50;99.90;;;;;;5010694;28;20486;-63
2022/02/08 19:51:14;;;;;;;5.13;0.68;;;17.50;99.90;;;;;;5008612;28;20030;-63
2022/02/08 19:53:43;;;;;;;8.98;0.80;;;17.60;99.90;;;;;;5004272;28;20084;-63
2022/02/08 19:58:52;;;;;;;4.73;0.50;;;17.90;99.90;;;;;;5010943;28;20081;-64
2022/02/08 20:01:34;;;;;;;8.88;0.80;;;18.00;99.90;;;;;;5015213;28;20034;-63
2022/02/08 20:04:16;;;;;;;5.13;1.05;;;18.10;99.90;;;;;;5011421;28;20026;-63
2022/02/08 20:06:45;;;;;;;4.50;0.80;;;18.10;99.90;;;;;;5010080;28;20120;-63
2022/02/08 20:09:14;;;;;;;1.85;1.02;;;18.10;99.90;;;;;;5009450;28;20614;-62
2022/02/08 20:11:47;;;;;;;4.05;0.80;;;18.10;99.90;;;;;;5012400;28;20034;-62
2022/02/08 20:14:15;;;;;;;6.65;0.88;;;18.20;99.90;;;;;;5011559;28;20026;-63
2022/02/08 20:16:42;;;;;;;4.35;0.90;;;18.20;99.90;;;;;;5010564;28;20060;-63
2022/02/08 20:19:12;;;;;;;4.85;0.98;;;18.30;99.90;;;;;;5010487;28;20029;-63
2022/02/08 20:21:40;;;;;;;5.03;1.05;;;18.30;99.90;;;;;;4998983;28;20042;-64
2022/02/08 20:24:12;;;;;;;5.55;1.00;;;18.40;99.90;;;;;;4994230;28;20125;-63
2022/02/08 20:29:28;;;;;;;5.82;0.55;;;18.40;99.90;;;;;;5009093;28;20069;-63
2022/02/08 20:31:55;;;;;;;5.60;0.85;;;18.50;99.90;;;;;;5014851;28;20033;-63
2022/02/08 20:34:27;;;;;;;6.50;1.42;;;18.50;99.90;;;;;;5011484;28;20040;-63
2022/02/08 20:36:57;;;;;;;3.20;0.70;;;18.60;99.90;;;;;;5014065;28;20018;-63
2022/02/08 20:39:25;;;;;;;3.78;0.50;;;18.60;99.90;;;;;;5011337;28;20437;-63
2022/02/08 20:41:55;;;;;;;6.38;1.40;;;18.70;99.90;;;;;;5013867;28;20112;-63
2022/02/08 20:44:24;;;;;;;5.93;0.50;;;18.80;99.90;;;;;;5012794;28;20033;-63
2022/02/08 20:46:59;;;;;;;4.53;0.60;;;18.90;99.90;;;;;;5008792;28;20107;-63
2022/02/08 20:49:26;;;;;;;4.38;0.57;;;18.90;99.90;;;;;;5013406;28;20068;-63